Time;durP1;ratioP1;P1;durP2;ratioP2;P2;SDS_P1;SDS_P2;PMS_P1;PMS_P2;Temp;Humidity;BMP_temperature;BMP_pressure;BME280_temperature;BME280_humidity;BME280_pressure;Samples;Min_cycle;Max_cycle;Signal;HPM_P1;HPM_P2
2021/05/09 00:01:27;;;;;;;2.60;2.40;;;9.60;99.90;;;;;;5007892;28;20642;-91
2021/05/09 00:03:54;;;;;;;2.47;2.23;;;9.50;99.90;;;;;;4991171;28;20660;-91
2021/05/09 00:06:22;;;;;;;3.90;3.60;;;9.50;99.90;;;;;;5005588;28;21034;-91
2021/05/09 00:08:49;;;;;;;3.00;2.70;;;9.40;99.90;;;;;;5003737;28;20698;-90
2021/05/09 00:11:15;;;;;;;2.60;2.40;;;9.50;99.90;;;;;;5001522;28;20652;-90
2021/05/09 00:13:42;;;;;;;3.40;2.90;;;9.50;99.90;;;;;;5005156;28;21057;-90
2021/05/09 00:16:09;;;;;;;2.10;2.00;;;9.40;99.90;;;;;;5004957;28;20628;-91
2021/05/09 00:18:36;;;;;;;2.63;2.33;;;9.30;99.90;;;;;;5004730;28;20640;-91
2021/05/09 00:21:02;;;;;;;2.17;2.03;;;9.30;99.90;;;;;;5003608;28;20690;-91
2021/05/09 00:23:29;;;;;;;4.00;2.60;;;9.30;99.90;;;;;;5003725;28;20664;-92
2021/05/09 00:25:55;;;;;;;3.67;2.77;;;9.20;99.90;;;;;;5003678;28;20639;-92
2021/05/09 00:28:22;;;;;;;3.70;3.00;;;9.20;99.90;;;;;;5005038;28;20631;-91
2021/05/09 00:30:48;;;;;;;3.23;2.80;;;9.20;99.90;;;;;;5005693;28;20664;-92
2021/05/09 00:33:14;;;;;;;3.40;3.10;;;9.20;99.90;;;;;;5002256;28;20682;-93
2021/05/09 00:35:41;;;;;;;3.13;2.93;;;9.20;99.90;;;;;;5001182;28;21189;-93
2021/05/09 00:38:08;;;;;;;2.70;2.50;;;9.20;99.90;;;;;;5006760;28;20635;-92
2021/05/09 00:40:35;;;;;;;2.70;2.50;;;9.10;99.90;;;;;;5003222;28;21079;-92
2021/05/09 00:43:01;;;;;;;3.60;3.30;;;9.10;99.90;;;;;;5002624;28;20666;-92
2021/05/09 00:45:28;;;;;;;5.70;3.13;;;9.10;99.90;;;;;;5002583;28;20624;-91
2021/05/09 00:47:56;;;;;;;6.40;3.10;;;9.10;99.90;;;;;;5002027;28;20628;-91
2021/05/09 00:50:22;;;;;;;4.07;2.43;;;9.00;99.90;;;;;;5004287;28;20732;-91
2021/05/09 00:52:49;;;;;;;3.13;2.83;;;9.00;99.90;;;;;;5007600;28;20637;-90
2021/05/09 00:55:19;;;;;;;3.80;2.93;;;9.00;99.90;;;;;;5007330;28;20631;-91
2021/05/09 00:57:48;;;;;;;4.23;2.97;;;9.00;99.90;;;;;;5009420;28;21010;-91
2021/05/09 01:00:15;;;;;;;2.90;2.70;;;9.00;99.90;;;;;;5008948;28;20659;-94
2021/05/09 01:02:43;;;;;;;2.30;2.10;;;9.00;99.90;;;;;;5007968;28;20619;-91
2021/05/09 01:05:11;;;;;;;2.43;2.23;;;9.10;99.90;;;;;;5005619;28;20997;-91
2021/05/09 01:07:37;;;;;;;3.30;3.00;;;9.00;99.90;;;;;;5005670;28;20647;-90
2021/05/09 01:10:05;;;;;;;3.33;3.03;;;9.00;99.90;;;;;;5008624;28;20662;-91
2021/05/09 01:12:32;;;;;;;2.60;2.30;;;9.00;99.90;;;;;;5008525;28;20999;-92
2021/05/09 01:14:59;;;;;;;2.43;2.33;;;9.00;99.90;;;;;;4991724;28;21150;-91
2021/05/09 01:17:26;;;;;;;2.47;2.30;;;9.00;99.90;;;;;;5007883;28;20629;-92
2021/05/09 01:19:53;;;;;;;3.73;2.47;;;9.00;99.90;;;;;;5010265;28;20661;-91
2021/05/09 01:22:21;;;;;;;3.43;3.13;;;9.00;99.90;;;;;;4992373;28;20639;-91
2021/05/09 01:24:47;;;;;;;3.00;2.80;;;8.90;99.90;;;;;;5004260;28;21232;-91
2021/05/09 01:27:13;;;;;;;2.67;2.40;;;8.90;99.90;;;;;;5002679;28;20648;-90
2021/05/09 01:29:40;;;;;;;3.40;2.43;;;8.90;99.90;;;;;;5002805;28;20698;-91
2021/05/09 01:32:07;;;;;;;2.83;2.63;;;8.90;99.90;;;;;;5001739;28;20623;-92
2021/05/09 01:34:35;;;;;;;2.70;2.50;;;8.90;99.90;;;;;;5002959;28;20628;-91
2021/05/09 01:37:03;;;;;;;2.67;2.47;;;8.80;99.90;;;;;;5002869;28;21270;-91
2021/05/09 01:39:30;;;;;;;2.80;2.60;;;8.80;99.90;;;;;;5002618;28;20659;-91
2021/05/09 01:41:57;;;;;;;4.53;2.70;;;8.80;99.90;;;;;;5008616;28;21165;-91
2021/05/09 01:44:24;;;;;;;2.40;2.20;;;8.80;99.90;;;;;;5008896;28;20660;-93
2021/05/09 01:46:50;;;;;;;3.27;2.97;;;8.80;99.90;;;;;;5009781;28;20643;-91
2021/05/09 01:49:17;;;;;;;2.80;2.57;;;8.80;99.90;;;;;;5006833;28;20628;-94
2021/05/09 01:51:43;;;;;;;4.90;2.93;;;8.80;99.90;;;;;;5011931;28;20635;-93
2021/05/09 01:54:09;;;;;;;4.70;3.30;;;8.90;99.90;;;;;;5021633;28;20623;-93
2021/05/09 01:56:39;;;;;;;3.77;3.47;;;8.80;99.90;;;;;;5015803;28;20643;-93
2021/05/09 01:59:07;;;;;;;3.43;3.23;;;8.80;99.90;;;;;;5014122;28;20628;-93
2021/05/09 02:01:34;;;;;;;3.67;3.37;;;8.80;99.90;;;;;;5004962;28;21281;-94
2021/05/09 02:04:01;;;;;;;3.60;3.30;;;8.80;99.90;;;;;;5008498;28;20670;-93
2021/05/09 02:06:27;;;;;;;3.00;2.80;;;8.80;99.90;;;;;;5004787;28;20613;-91
2021/05/09 02:08:53;;;;;;;4.70;2.97;;;8.70;99.90;;;;;;5004925;28;21218;-92
2021/05/09 02:11:20;;;;;;;3.27;3.00;;;8.60;99.90;;;;;;5005352;28;20658;-93
2021/05/09 02:13:47;;;;;;;3.73;3.43;;;8.70;99.90;;;;;;5027346;28;20640;-92
2021/05/09 02:16:13;;;;;;;3.53;3.23;;;8.60;99.90;;;;;;5027475;28;20627;-93
2021/05/09 02:18:40;;;;;;;3.33;3.10;;;8.70;99.90;;;;;;5027619;28;20674;-92
2021/05/09 02:21:06;;;;;;;3.00;2.70;;;8.60;99.90;;;;;;5029370;28;20734;-92
2021/05/09 02:23:32;;;;;;;3.10;2.80;;;8.60;99.90;;;;;;5027459;28;20660;-92
2021/05/09 02:25:59;;;;;;;2.83;2.63;;;8.60;99.90;;;;;;5030966;28;20636;-92
2021/05/09 02:28:26;;;;;;;3.60;3.40;;;8.50;99.90;;;;;;5027584;28;20688;-92
2021/05/09 02:30:56;;;;;;;3.60;3.30;;;8.60;99.90;;;;;;5027132;28;20642;-93
2021/05/09 02:33:22;;;;;;;3.50;2.80;;;8.50;99.90;;;;;;5028586;28;20629;-93
2021/05/09 02:35:48;;;;;;;3.27;2.97;;;8.50;99.90;;;;;;5031427;28;21024;-91
2021/05/09 02:38:15;;;;;;;2.63;2.43;;;8.50;99.90;;;;;;5027253;28;20620;-92
2021/05/09 02:40:41;;;;;;;5.03;3.20;;;8.60;99.90;;;;;;5024941;28;21009;-92
2021/05/09 02:43:07;;;;;;;4.70;3.23;;;8.60;99.90;;;;;;5025122;28;20620;-91
2021/05/09 02:45:34;;;;;;;3.27;2.87;;;8.60;99.90;;;;;;5028136;28;20659;-89
2021/05/09 02:48:01;;;;;;;3.37;3.17;;;8.50;99.90;;;;;;5025990;28;20627;-91
2021/05/09 02:50:27;;;;;;;3.83;3.53;;;8.40;99.90;;;;;;5025847;28;20679;-91
2021/05/09 02:52:54;;;;;;;3.07;2.77;;;8.50;99.90;;;;;;5015414;28;20620;-91
2021/05/09 02:55:20;;;;;;;3.80;2.77;;;8.50;99.90;;;;;;5010678;28;20678;-91
2021/05/09 02:57:47;;;;;;;4.07;3.07;;;8.50;99.90;;;;;;5006180;28;20625;-91
2021/05/09 03:00:15;;;;;;;3.53;2.53;;;8.50;99.90;;;;;;5006188;28;21229;-91
2021/05/09 03:02:41;;;;;;;3.67;3.37;;;8.50;99.90;;;;;;5008258;28;20632;-91
2021/05/09 03:05:10;;;;;;;2.60;2.40;;;8.50;99.90;;;;;;5005315;28;20648;-91
2021/05/09 03:07:36;;;;;;;2.40;2.20;;;8.60;99.90;;;;;;5005764;28;20639;-94
2021/05/09 03:10:05;;;;;;;3.47;3.17;;;8.60;99.90;;;;;;4990751;28;20737;-94
2021/05/09 03:12:32;;;;;;;3.87;2.53;;;8.70;99.90;;;;;;5006520;28;20641;-95
2021/05/09 03:14:58;;;;;;;2.70;2.50;;;8.60;99.90;;;;;;5006442;28;20656;-94
2021/05/09 03:17:25;;;;;;;4.13;2.43;;;8.60;99.90;;;;;;4990071;28;20628;-95
2021/05/09 03:19:51;;;;;;;2.67;2.47;;;8.60;99.90;;;;;;5004783;28;20651;-90
2021/05/09 03:22:18;;;;;;;2.90;2.70;;;8.60;99.90;;;;;;5001695;28;20627;-90
2021/05/09 03:24:45;;;;;;;2.30;2.20;;;8.60;99.90;;;;;;4992982;28;20667;-90
2021/05/09 03:27:13;;;;;;;2.73;2.53;;;8.60;99.90;;;;;;4992701;28;20658;-90
2021/05/09 03:29:39;;;;;;;3.13;2.53;;;8.60;99.90;;;;;;4980000;28;20655;-90
2021/05/09 03:32:06;;;;;;;3.13;2.83;;;8.70;99.90;;;;;;4979872;28;20655;-92
2021/05/09 03:34:32;;;;;;;2.73;2.53;;;8.60;99.90;;;;;;5002328;28;20961;-90
2021/05/09 03:36:58;;;;;;;3.30;2.40;;;8.60;99.90;;;;;;5000577;28;20639;-91
2021/05/09 03:39:26;;;;;;;4.70;2.77;;;8.60;99.90;;;;;;5000008;28;20643;-91
2021/05/09 03:41:54;;;;;;;3.00;2.80;;;8.70;99.90;;;;;;4982924;28;20742;-93
2021/05/09 03:44:20;;;;;;;2.93;2.63;;;8.60;99.90;;;;;;5002917;28;21712;-92
2021/05/09 03:46:47;;;;;;;2.93;2.73;;;8.60;99.90;;;;;;4999214;28;20631;-90
2021/05/09 03:49:13;;;;;;;2.33;2.10;;;8.60;99.90;;;;;;5002359;28;20655;-92
2021/05/09 03:51:41;;;;;;;3.57;2.37;;;8.60;99.90;;;;;;5003565;28;20620;-92
2021/05/09 03:54:08;;;;;;;2.40;2.00;;;8.60;99.90;;;;;;5005669;28;20632;-92
2021/05/09 03:56:37;;;;;;;5.10;2.70;;;8.50;99.90;;;;;;5001415;28;20696;-92
2021/05/09 03:59:04;;;;;;;3.20;2.47;;;8.60;99.90;;;;;;5003627;28;20631;-91
2021/05/09 04:01:30;;;;;;;2.97;2.20;;;8.60;99.90;;;;;;5003414;28;21233;-91
2021/05/09 04:03:56;;;;;;;2.83;2.63;;;8.60;99.90;;;;;;5004062;28;20656;-92
2021/05/09 04:06:23;;;;;;;2.57;2.37;;;8.60;99.90;;;;;;4999116;28;20624;-92
2021/05/09 04:08:49;;;;;;;3.07;2.80;;;8.60;99.90;;;;;;4987446;28;20649;-92
2021/05/09 04:11:17;;;;;;;2.63;2.43;;;8.60;99.90;;;;;;5006100;28;20648;-91
2021/05/09 04:13:44;;;;;;;3.20;3.00;;;8.50;99.90;;;;;;4994115;28;20646;-90
2021/05/09 04:16:13;;;;;;;2.87;2.67;;;8.50;99.90;;;;;;5010773;28;20628;-92
2021/05/09 04:18:40;;;;;;;2.40;2.20;;;8.60;99.90;;;;;;5000157;28;20631;-91
2021/05/09 04:21:06;;;;;;;3.73;3.20;;;8.50;99.90;;;;;;4999829;28;21363;-89
2021/05/09 04:23:33;;;;;;;3.00;2.70;;;8.70;99.90;;;;;;4999111;28;20655;-89
2021/05/09 04:26:00;;;;;;;3.33;3.03;;;8.80;99.90;;;;;;5001814;28;21276;-90
2021/05/09 04:28:27;;;;;;;2.50;2.30;;;8.80;99.90;;;;;;5003175;28;20721;-89
2021/05/09 04:30:55;;;;;;;4.87;2.60;;;8.90;99.90;;;;;;5005080;28;20661;-91
2021/05/09 04:33:25;;;;;;;2.83;2.60;;;8.90;99.90;;;;;;5010935;28;20651;-91
2021/05/09 04:35:52;;;;;;;2.87;2.67;;;9.00;99.90;;;;;;5006294;28;20631;-91
2021/05/09 04:38:20;;;;;;;4.23;2.73;;;9.10;99.90;;;;;;5006095;28;20638;-90
2021/05/09 04:40:47;;;;;;;3.10;2.67;;;9.10;99.90;;;;;;5011084;28;20849;-90
2021/05/09 04:43:16;;;;;;;2.93;2.73;;;9.20;99.90;;;;;;5017073;28;20644;-92
2021/05/09 04:45:46;;;;;;;3.10;2.90;;;9.30;99.90;;;;;;5024811;28;20655;-93
2021/05/09 04:48:21;;;;;;;2.80;2.60;;;9.30;99.90;;;;;;5020344;28;20673;-92
2021/05/09 04:50:56;;;;;;;2.97;2.77;;;9.40;99.90;;;;;;5017217;28;20661;-91
2021/05/09 04:53:24;;;;;;;2.70;2.50;;;9.50;99.90;;;;;;4995847;28;20642;-90
2021/05/09 04:55:51;;;;;;;2.60;2.40;;;9.60;99.90;;;;;;5021197;28;20650;-93
2021/05/09 04:58:18;;;;;;;4.73;2.40;;;9.60;99.90;;;;;;5023929;28;20623;-93
2021/05/09 05:00:46;;;;;;;3.00;2.80;;;9.60;99.90;;;;;;5031653;28;20678;-94
2021/05/09 05:03:14;;;;;;;2.50;2.30;;;9.70;99.90;;;;;;5015781;28;20632;-92
2021/05/09 05:05:42;;;;;;;2.97;2.77;;;9.80;99.90;;;;;;5011598;28;20671;-95
2021/05/09 05:08:18;;;;;;;3.33;2.77;;;9.80;99.90;;;;;;5009216;28;20626;-93
2021/05/09 05:10:45;;;;;;;2.90;2.70;;;9.80;99.90;;;;;;5023887;28;20646;-93
2021/05/09 05:13:21;;;;;;;3.03;2.70;;;9.80;99.90;;;;;;5015883;28;20943;-94
2021/05/09 05:15:49;;;;;;;2.50;2.30;;;9.90;99.90;;;;;;5009965;28;20627;-93
2021/05/09 05:18:17;;;;;;;3.23;2.47;;;9.90;99.90;;;;;;5010652;28;20635;-94
2021/05/09 05:20:46;;;;;;;2.97;2.77;;;10.00;99.90;;;;;;5011761;28;21074;-92
2021/05/09 05:23:23;;;;;;;2.70;2.50;;;10.10;99.90;;;;;;5017481;28;21202;-96
2021/05/09 05:26:13;;;;;;;3.83;3.53;;;10.10;99.90;;;;;;5021487;28;20693;-96
2021/05/09 05:28:54;;;;;;;2.83;2.63;;;10.20;99.90;;;;;;5020127;28;20655;-96
2021/05/09 05:31:34;;;;;;;3.53;3.23;;;10.20;99.90;;;;;;5021385;28;20687;-96
2021/05/09 05:34:02;;;;;;;5.97;5.47;;;10.20;99.90;;;;;;5022371;28;20622;-96
2021/05/09 05:36:31;;;;;;;11.43;10.33;;;10.30;99.90;;;;;;4993618;28;21001;-96
2021/05/09 05:39:00;;;;;;;9.77;8.90;;;10.30;99.90;;;;;;5032824;28;20636;-96
2021/05/09 05:47:05;;;;;;;5.60;4.90;;;10.80;99.90;;;;;;5074275;23;20668;-96
2021/05/09 06:05:51;;;;;;;2.90;2.60;;;12.20;99.90;;;;;;5302182;23;20676;-95
2021/05/09 06:08:18;;;;;;;4.67;2.70;;;12.30;99.90;;;;;;4994511;28;20767;-96
2021/05/09 06:19:17;;;;;;;2.70;2.50;;;13.00;99.90;;;;;;5983021;23;20662;-94
2021/05/09 06:21:49;;;;;;;2.87;2.50;;;13.10;99.90;;;;;;4973953;28;20641;-95
2021/05/09 06:24:19;;;;;;;3.33;2.30;;;13.30;99.90;;;;;;4978782;28;20684;-95
2021/05/09 06:26:58;;;;;;;3.50;2.70;;;13.40;99.90;;;;;;4988429;28;20624;-96
2021/05/09 06:29:24;;;;;;;3.27;2.07;;;13.50;99.90;;;;;;4974556;28;20640;-94
2021/05/09 06:32:03;;;;;;;4.70;2.80;;;13.60;99.90;;;;;;4993421;28;20585;-96
2021/05/09 06:34:31;;;;;;;3.87;2.80;;;13.90;99.90;;;;;;4985997;28;20665;-96
2021/05/09 06:37:02;;;;;;;4.30;2.80;;;13.90;99.90;;;;;;4957558;28;20644;-95
2021/05/09 06:39:30;;;;;;;3.40;3.10;;;14.00;99.90;;;;;;4976309;28;21101;-96
2021/05/09 06:42:00;;;;;;;2.60;1.90;;;14.00;99.90;;;;;;4978715;28;20629;-95
2021/05/09 06:44:31;;;;;;;2.33;2.13;;;14.20;99.90;;;;;;4980833;28;20692;-96
2021/05/09 06:47:05;;;;;;;2.30;2.10;;;14.30;99.90;;;;;;4977538;28;21075;-96
2021/05/09 06:49:33;;;;;;;2.67;2.10;;;14.40;99.90;;;;;;4985185;28;21147;-96
2021/05/09 06:52:07;;;;;;;2.30;2.10;;;14.60;99.90;;;;;;4981351;28;20636;-96
2021/05/09 06:54:35;;;;;;;2.00;1.90;;;14.90;99.90;;;;;;4979392;28;20740;-94
2021/05/09 06:57:03;;;;;;;4.60;2.63;;;14.90;99.90;;;;;;4978619;28;20634;-96
2021/05/09 06:59:30;;;;;;;3.33;2.10;;;14.90;99.90;;;;;;4981764;28;21192;-96
2021/05/09 07:02:00;;;;;;;2.80;2.00;;;15.10;99.90;;;;;;4989629;28;20696;-96
2021/05/09 07:07:05;;;;;;;5.43;2.30;;;15.40;99.90;;;;;;5064847;23;21097;-91
2021/05/09 07:09:32;;;;;;;2.77;2.30;;;15.40;99.90;;;;;;5023652;28;20603;-95
2021/05/09 07:11:58;;;;;;;3.03;2.70;;;15.60;99.90;;;;;;5026982;28;20641;-94
2021/05/09 07:14:25;;;;;;;2.60;2.40;;;15.70;99.90;;;;;;5030637;28;20623;-92
2021/05/09 07:16:51;;;;;;;2.33;1.70;;;15.80;99.90;;;;;;5004328;28;20660;-93
2021/05/09 07:19:19;;;;;;;2.77;1.90;;;16.10;99.90;;;;;;5010974;28;20727;-94
2021/05/09 07:21:49;;;;;;;4.90;2.10;;;16.20;99.90;;;;;;5008745;28;20637;-93
2021/05/09 07:24:18;;;;;;;2.97;1.80;;;16.40;99.90;;;;;;5007128;28;21090;-93
2021/05/09 07:26:45;;;;;;;2.33;2.13;;;16.60;99.90;;;;;;5014627;28;20717;-94
2021/05/09 07:29:11;;;;;;;3.50;2.13;;;16.80;99.90;;;;;;5023642;28;20647;-95
2021/05/09 07:31:40;;;;;;;2.47;2.00;;;16.90;99.90;;;;;;5010129;28;20646;-94
2021/05/09 07:34:07;;;;;;;2.40;2.20;;;17.20;99.90;;;;;;5005863;28;20628;-94
2021/05/09 07:36:39;;;;;;;2.17;1.97;;;17.30;98.20;;;;;;4992976;28;20660;-93
2021/05/09 07:39:06;;;;;;;2.30;2.03;;;17.50;99.10;;;;;;5007525;28;20636;-94
2021/05/09 07:41:33;;;;;;;3.17;1.63;;;17.80;98.50;;;;;;5006275;28;21051;-94
2021/05/09 07:44:02;;;;;;;1.70;1.60;;;18.00;97.90;;;;;;5006708;28;20643;-95
2021/05/09 07:46:30;;;;;;;2.13;1.63;;;18.10;97.30;;;;;;5007910;28;20675;-93
2021/05/09 07:48:58;;;;;;;1.80;1.50;;;18.30;97.00;;;;;;5009347;28;20769;-93
2021/05/09 07:51:25;;;;;;;2.00;1.60;;;18.50;96.20;;;;;;4993657;28;20979;-94
2021/05/09 07:53:54;;;;;;;2.10;1.30;;;18.70;95.80;;;;;;5012344;28;20636;-94
2021/05/09 07:56:20;;;;;;;3.63;1.70;;;18.80;95.10;;;;;;5006073;28;20658;-95
2021/05/09 07:58:49;;;;;;;1.87;1.40;;;18.90;94.90;;;;;;5013342;28;20727;-95
2021/05/09 08:01:17;;;;;;;1.33;1.23;;;19.00;94.60;;;;;;5006670;28;20999;-95
2021/05/09 08:03:44;;;;;;;1.90;1.27;;;19.30;94.90;;;;;;5008670;28;20674;-94
2021/05/09 08:06:11;;;;;;;2.30;1.50;;;19.50;93.90;;;;;;5008123;28;20749;-94
2021/05/09 08:08:38;;;;;;;2.00;1.13;;;19.60;93.60;;;;;;5004202;28;20644;-93
2021/05/09 08:11:04;;;;;;;2.10;1.57;;;19.70;93.60;;;;;;5005498;28;20627;-94
2021/05/09 08:13:31;;;;;;;2.80;1.00;;;19.90;93.30;;;;;;5004099;28;20628;-94
2021/05/09 08:15:58;;;;;;;3.07;1.80;;;20.00;93.10;;;;;;5001700;28;20660;-95
2021/05/09 08:18:26;;;;;;;1.80;1.30;;;20.30;93.30;;;;;;5007610;28;20643;-95
2021/05/09 08:20:55;;;;;;;3.13;1.40;;;20.50;92.80;;;;;;5013114;28;20773;-95
2021/05/09 08:23:23;;;;;;;1.63;1.53;;;20.60;92.00;;;;;;5008285;28;20640;-95
2021/05/09 08:25:49;;;;;;;1.77;1.57;;;20.70;92.00;;;;;;5012948;28;21036;-95
2021/05/09 08:28:19;;;;;;;2.10;1.47;;;20.80;91.30;;;;;;5013220;28;20647;-95
2021/05/09 08:30:45;;;;;;;5.43;2.10;;;20.80;91.00;;;;;;4990299;28;20643;-96
2021/05/09 08:33:12;;;;;;;3.40;1.60;;;20.90;90.90;;;;;;5007694;28;20694;-95
2021/05/09 08:35:39;;;;;;;2.27;2.03;;;21.30;91.10;;;;;;5018041;28;21063;-96
2021/05/09 08:38:06;;;;;;;1.70;1.60;;;21.50;90.30;;;;;;5018498;28;20631;-95
2021/05/09 08:40:38;;;;;;;2.33;2.10;;;21.70;88.30;;;;;;5018931;28;20636;-96
2021/05/09 08:43:05;;;;;;;3.43;1.30;;;21.80;87.70;;;;;;5019846;28;20635;-96
2021/05/09 08:45:32;;;;;;;1.70;1.60;;;21.90;87.70;;;;;;5020335;28;20690;-96
2021/05/09 08:51:34;;;;;;;1.60;1.50;;;22.40;86.30;;;;;;5387343;23;20686;-96
2021/05/09 09:17:51;;;;;;;2.10;1.30;;;23.80;79.40;;;;;;5028536;28;20662;-96
2021/05/09 09:20:43;;;;;;;1.57;1.47;;;24.10;76.60;;;;;;5035629;28;20636;-96
2021/05/09 09:23:10;;;;;;;2.80;1.57;;;24.40;76.30;;;;;;5033268;28;20695;-95
2021/05/09 09:25:41;;;;;;;1.33;1.23;;;24.70;77.90;;;;;;5013743;28;20687;-92
2021/05/09 09:28:07;;;;;;;1.20;1.10;;;24.80;73.30;;;;;;5009578;28;20740;-91
2021/05/09 09:30:48;;;;;;;2.43;1.50;;;25.00;73.50;;;;;;5015057;28;20635;-91
2021/05/09 09:33:19;;;;;;;1.97;1.80;;;25.20;71.40;;;;;;5015458;28;20647;-93
2021/05/09 09:35:48;;;;;;;2.27;2.00;;;25.30;71.70;;;;;;5015297;28;20698;-92
2021/05/09 09:38:26;;;;;;;4.50;2.20;;;25.60;71.70;;;;;;5017082;28;20643;-92
2021/05/09 09:41:16;;;;;;;3.83;2.00;;;25.80;69.80;;;;;;5021551;28;20695;-92
2021/05/09 09:43:45;;;;;;;1.60;1.50;;;26.00;68.30;;;;;;5016768;28;20631;-90
2021/05/09 09:46:29;;;;;;;1.63;1.50;;;26.10;67.80;;;;;;5015041;28;20733;-93
2021/05/09 09:48:56;;;;;;;1.30;1.20;;;26.40;66.60;;;;;;5016544;28;20710;-92
2021/05/09 09:51:24;;;;;;;1.57;1.23;;;26.50;67.30;;;;;;5015321;28;20624;-92
2021/05/09 09:53:51;;;;;;;1.27;1.10;;;26.70;64.90;;;;;;5009720;28;20619;-91
2021/05/09 09:56:19;;;;;;;3.07;1.37;;;26.70;62.70;;;;;;5005310;28;20782;-91
2021/05/09 09:58:50;;;;;;;1.53;1.43;;;26.70;64.40;;;;;;5003688;28;20635;-92
2021/05/09 10:01:21;;;;;;;2.97;1.50;;;27.00;62.10;;;;;;4984538;28;20628;-90
2021/05/09 10:03:48;;;;;;;1.30;1.20;;;27.30;61.90;;;;;;5001294;28;20643;-90
2021/05/09 10:06:16;;;;;;;1.27;1.17;;;27.40;59.40;;;;;;5003452;28;20679;-91
2021/05/09 10:08:43;;;;;;;1.50;1.40;;;27.50;57.90;;;;;;5003449;28;20628;-92
2021/05/09 10:11:09;;;;;;;1.80;1.53;;;27.70;58.00;;;;;;5006217;28;20616;-92
2021/05/09 10:13:36;;;;;;;1.53;1.43;;;27.80;57.20;;;;;;5006328;28;21248;-91
2021/05/09 10:16:03;;;;;;;3.70;1.30;;;28.20;54.90;;;;;;5005449;28;20667;-92
2021/05/09 10:18:34;;;;;;;1.57;0.97;;;28.20;52.90;;;;;;5000874;28;20666;-91
2021/05/09 10:21:01;;;;;;;1.20;1.00;;;28.50;53.50;;;;;;4995406;28;20631;-93
2021/05/09 10:23:30;;;;;;;2.90;1.27;;;28.20;52.50;;;;;;4999760;28;21190;-92
2021/05/09 10:25:58;;;;;;;1.63;1.00;;;28.30;51.20;;;;;;5003739;28;20682;-92
2021/05/09 10:28:27;;;;;;;1.40;0.93;;;28.00;48.80;;;;;;5001066;28;20581;-92
2021/05/09 10:30:55;;;;;;;3.13;1.10;;;28.40;48.60;;;;;;5007308;28;20589;-92
2021/05/09 10:33:44;;;;;;;1.20;1.10;;;28.80;48.50;;;;;;5022301;28;20618;-91
2021/05/09 10:36:39;;;;;;;1.63;1.13;;;29.20;48.30;;;;;;5002161;28;20663;-93
2021/05/09 10:39:17;;;;;;;1.20;0.80;;;28.90;47.00;;;;;;5003716;28;20640;-92
2021/05/09 10:42:18;;;;;;;2.50;2.23;;;29.20;47.40;;;;;;5002919;28;20631;-91
2021/05/09 10:44:48;;;;;;;1.20;1.00;;;29.30;48.30;;;;;;5002043;28;20665;-90
2021/05/09 10:47:31;;;;;;;1.50;1.30;;;29.20;46.30;;;;;;4999367;28;20707;-91
2021/05/09 10:50:23;;;;;;;1.00;0.90;;;29.60;46.30;;;;;;5003196;28;20628;-90
2021/05/09 10:52:51;;;;;;;1.27;1.00;;;29.60;44.30;;;;;;5002839;28;20687;-92
2021/05/09 10:55:44;;;;;;;1.93;1.47;;;29.50;44.60;;;;;;5000192;28;20636;-91
2021/05/09 10:58:14;;;;;;;4.10;3.70;;;30.20;46.20;;;;;;4993777;28;20642;-92
2021/05/09 11:01:15;;;;;;;1.50;1.40;;;30.60;44.70;;;;;;4998104;28;20679;-90
2021/05/09 11:03:52;;;;;;;2.00;1.20;;;30.80;43.60;;;;;;5002481;28;20662;-91
2021/05/09 11:06:20;;;;;;;1.37;1.13;;;30.50;42.30;;;;;;4998808;28;21259;-92
2021/05/09 11:08:58;;;;;;;2.13;1.50;;;30.50;43.30;;;;;;5004778;28;20908;-92
2021/05/09 11:11:57;;;;;;;2.00;1.80;;;30.80;43.00;;;;;;5001902;28;20717;-91
2021/05/09 11:14:23;;;;;;;2.60;1.80;;;30.80;42.20;;;;;;5002229;28;21190;-92
2021/05/09 11:17:17;;;;;;;1.70;1.60;;;30.90;42.10;;;;;;4998840;28;20662;-91
2021/05/09 11:19:52;;;;;;;2.70;1.00;;;31.10;41.40;;;;;;4996758;28;20662;-92
2021/05/09 11:22:25;;;;;;;3.80;2.00;;;30.80;40.90;;;;;;5000286;28;20642;-91
2021/05/09 11:24:59;;;;;;;6.90;4.53;;;31.00;40.80;;;;;;4993821;28;20729;-91
2021/05/09 11:27:27;;;;;;;3.40;3.10;;;31.20;40.30;;;;;;5000683;28;20802;-92
2021/05/09 11:29:54;;;;;;;2.63;1.83;;;31.30;40.30;;;;;;4998117;28;20639;-92
2021/05/09 11:32:22;;;;;;;2.60;1.57;;;31.50;39.50;;;;;;5001330;28;20965;-92
2021/05/09 11:34:59;;;;;;;1.60;1.50;;;31.40;39.40;;;;;;5001570;28;20616;-92
2021/05/09 11:37:34;;;;;;;1.40;1.20;;;31.80;39.60;;;;;;4978730;28;20659;-92
2021/05/09 11:40:05;;;;;;;2.60;1.80;;;32.00;38.20;;;;;;5003351;28;20638;-91
2021/05/09 11:42:33;;;;;;;2.13;1.10;;;31.60;37.20;;;;;;5001504;28;20956;-91
2021/05/09 11:44:59;;;;;;;2.40;1.10;;;31.80;37.00;;;;;;5002187;28;20667;-93
2021/05/09 11:47:27;;;;;;;2.10;1.23;;;31.80;37.70;;;;;;5000629;28;20663;-91
2021/05/09 11:49:56;;;;;;;1.93;1.30;;;32.20;38.20;;;;;;5000099;28;21061;-92
2021/05/09 11:52:26;;;;;;;1.30;1.10;;;32.60;38.10;;;;;;4998388;28;21193;-92
2021/05/09 11:54:57;;;;;;;5.30;1.60;;;32.70;35.80;;;;;;5000306;28;20630;-93
2021/05/09 11:57:26;;;;;;;1.80;1.23;;;32.90;37.00;;;;;;5002723;28;20644;-91
2021/05/09 12:00:00;;;;;;;1.40;1.30;;;32.90;36.70;;;;;;5004955;28;20721;-92
2021/05/09 12:02:29;;;;;;;2.73;1.10;;;33.20;35.70;;;;;;5004402;28;20619;-93
2021/05/09 12:05:04;;;;;;;1.13;1.03;;;33.30;35.60;;;;;;5002622;28;21164;-94
2021/05/09 12:07:40;;;;;;;2.10;1.27;;;33.20;35.90;;;;;;5008594;28;20663;-93
2021/05/09 12:10:08;;;;;;;3.03;1.30;;;33.30;35.80;;;;;;5003996;28;21236;-91
2021/05/09 12:12:36;;;;;;;1.60;1.30;;;33.70;35.40;;;;;;5014898;28;20663;-93
2021/05/09 12:15:11;;;;;;;3.83;1.30;;;33.70;35.20;;;;;;5004089;28;20649;-93
2021/05/09 12:17:49;;;;;;;1.70;1.17;;;34.20;33.70;;;;;;5001130;28;20231;-93
2021/05/09 12:20:26;;;;;;;2.00;1.80;;;34.40;33.00;;;;;;4997821;28;20583;-92
2021/05/09 12:22:53;;;;;;;1.63;1.23;;;34.40;33.60;;;;;;5001224;28;20204;-92
2021/05/09 12:25:30;;;;;;;4.82;1.20;;;34.40;33.50;;;;;;5004413;28;20224;-92
2021/05/09 12:28:05;;;;;;;1.20;1.00;;;34.60;33.70;;;;;;5000887;28;20212;-91
2021/05/09 12:30:34;;;;;;;1.43;1.00;;;34.20;33.90;;;;;;5002066;28;20213;-91
2021/05/09 12:33:00;;;;;;;1.67;1.57;;;34.00;32.70;;;;;;4999401;28;20207;-91
2021/05/09 12:35:30;;;;;;;1.20;0.80;;;34.40;32.70;;;;;;5000894;28;20738;-91
2021/05/09 12:38:01;;;;;;;1.30;1.10;;;34.70;33.00;;;;;;5001398;28;20208;-91
2021/05/09 12:40:31;;;;;;;2.17;1.53;;;34.60;32.80;;;;;;5000950;28;20204;-92
2021/05/09 12:43:00;;;;;;;3.77;1.10;;;34.70;31.80;;;;;;5002159;28;20212;-92
2021/05/09 12:45:28;;;;;;;1.20;1.10;;;34.90;32.10;;;;;;4994454;28;20224;-92
2021/05/09 12:48:10;;;;;;;1.30;1.20;;;34.70;32.20;;;;;;5004892;28;20712;-91
2021/05/09 12:51:04;;;;;;;1.60;1.37;;;35.00;32.60;;;;;;4994707;28;20757;-90
2021/05/09 12:53:44;;;;;;;1.30;1.10;;;35.50;32.80;;;;;;5007336;28;20196;-93
2021/05/09 12:56:20;;;;;;;1.90;1.13;;;35.30;30.80;;;;;;5007673;28;20251;-92
2021/05/09 12:59:09;;;;;;;1.85;1.20;;;35.20;31.40;;;;;;5000365;28;20208;-92
2021/05/09 13:01:37;;;;;;;1.60;1.00;;;35.30;30.70;;;;;;5002696;28;20227;-92
2021/05/09 13:04:27;;;;;;;1.77;1.10;;;35.10;31.20;;;;;;5002002;28;20212;-93
2021/05/09 13:06:56;;;;;;;1.40;1.03;;;35.10;30.70;;;;;;5003729;28;20231;-92
2021/05/09 13:09:22;;;;;;;1.80;1.27;;;35.30;30.50;;;;;;5004471;28;20266;-94
2021/05/09 13:11:49;;;;;;;1.90;0.95;;;35.30;32.30;;;;;;5003524;28;20201;-90
2021/05/09 13:14:15;;;;;;;1.95;1.20;;;35.80;31.10;;;;;;5005553;28;20541;-92
2021/05/09 13:16:44;;;;;;;2.65;1.08;;;35.70;31.50;;;;;;5007021;28;20334;-91
2021/05/09 13:19:12;;;;;;;1.17;1.08;;;36.30;30.90;;;;;;5002787;28;20208;-92
2021/05/09 13:21:38;;;;;;;1.52;0.95;;;36.10;30.70;;;;;;5010178;28;20210;-92
2021/05/09 13:24:06;;;;;;;1.98;1.20;;;36.70;31.30;;;;;;5008520;28;20546;-91
2021/05/09 13:26:32;;;;;;;1.65;1.05;;;36.40;30.10;;;;;;5004166;28;20664;-92
2021/05/09 13:29:01;;;;;;;2.58;1.48;;;36.30;30.00;;;;;;4986485;28;20204;-92
2021/05/09 13:31:28;;;;;;;2.03;1.08;;;36.70;30.20;;;;;;5007257;28;20575;-93
2021/05/09 13:33:56;;;;;;;2.50;1.00;;;36.40;30.30;;;;;;5018069;28;20201;-92
2021/05/09 13:36:23;;;;;;;1.20;1.00;;;37.00;30.50;;;;;;5022967;28;20215;-92
2021/05/09 13:38:50;;;;;;;1.48;1.10;;;37.10;29.30;;;;;;5018206;28;20251;-91
2021/05/09 13:41:19;;;;;;;2.55;1.00;;;36.50;29.30;;;;;;4999478;28;21107;-91
2021/05/09 13:43:47;;;;;;;1.48;1.02;;;36.00;29.80;;;;;;5005017;28;20223;-92
2021/05/09 13:46:14;;;;;;;1.10;0.80;;;36.10;29.70;;;;;;5007218;28;20290;-93
2021/05/09 13:48:41;;;;;;;3.15;1.25;;;36.50;29.20;;;;;;5005819;28;20208;-92
2021/05/09 13:51:08;;;;;;;1.60;1.00;;;36.70;29.10;;;;;;5003278;28;20224;-94
2021/05/09 13:53:36;;;;;;;1.70;0.95;;;36.70;29.40;;;;;;5001141;28;20287;-92
2021/05/09 13:56:07;;;;;;;1.30;0.70;;;36.90;29.10;;;;;;4989208;28;20323;-94
2021/05/09 13:58:33;;;;;;;1.45;1.08;;;36.10;28.70;;;;;;5003064;28;20208;-94
2021/05/09 14:01:01;;;;;;;1.20;0.93;;;36.00;29.40;;;;;;5004597;28;20204;-92
2021/05/09 14:03:28;;;;;;;10.48;1.13;;;36.60;30.30;;;;;;5002803;28;20580;-93